Terminal Aerodrome Forecast
Issued by NWS Upton, NY

Home | Current Version | Previous Version | Text Only | Print | Product List | Glossary On
Versions: 1 2 3 4 5 6 7 8 9 10 11 12 13 14 15 16 17 18 19 20 21 22 23 24 25 26 27 28 29 30 31 32 33 34 35
818
FTUS41 KOKX 311143
TAFJFK
TAF
KJFK 311143Z 3112/0118 20004KT 6SM BR SCT006 BKN020
     FM311300 33005KT P6SM BKN020
     FM311400 34007KT P6SM SCT030
     FM311700 18010KT P6SM FEW045 FEW080
     FM010000 19007KT P6SM FEW080
     FM010200 VRB04KT P6SM FEW080
     FM010600 02005KT P6SM FEW080
     FM010900 04006KT P6SM FEW080
     FM011600 16008KT P6SM FEW080=

USA.gov is the U.S. government's official web portal to all federal, state and local government web resources and services.